createdAt,value
2023-01-01T00:00:34.466Z,99892.97
2023-01-01T00:01:16.840Z,99900.00
2023-01-01T00:01:58.519Z,99894.72
2023-01-01T00:02:40.204Z,99902.34
2023-01-01T00:03:21.943Z,99898.19
2023-01-01T00:04:03.881Z,99916.00
2023-01-01T00:04:47.532Z,99876.72
2023-01-01T00:05:29.157Z,99909.38
2023-01-01T00:06:13.518Z,99839.31
2023-01-01T00:06:55.104Z,99842.44
2023-01-01T00:07:36.809Z,99837.50
2023-01-01T00:08:18.413Z,99879.97
2023-01-01T00:09:19.190Z,99902.38
2023-01-01T00:10:19.475Z,99896.31
2023-01-01T00:11:05.633Z,99904.69
2023-01-01T00:11:47.302Z,99893.19
2023-01-01T00:12:29.032Z,99901.94
2023-01-01T00:13:13.378Z,99895.44
2023-01-01T00:13:55.070Z,99906.50
2023-01-01T00:14:36.817Z,99879.50
2023-01-01T00:15:18.470Z,99914.41
2023-01-01T00:16:07.201Z,99916.03
2023-01-01T00:16:48.932Z,99915.25
2023-01-01T00:17:31.172Z,99914.41
2023-01-01T00:18:13.328Z,99886.56
2023-01-01T00:18:54.986Z,99909.50
2023-01-01T00:19:36.648Z,99898.56
2023-01-01T00:20:18.392Z,99905.00
2023-01-01T00:21:09.644Z,99918.34
2023-01-01T00:21:51.317Z,99907.34
2023-01-01T00:22:54.102Z,99922.81
2023-01-01T00:23:35.700Z,99901.53
2023-01-01T00:24:17.386Z,99906.94
2023-01-01T00:24:59.026Z,99878.47
2023-01-01T00:25:41.800Z,99907.31
2023-01-01T00:26:23.428Z,99905.69
2023-01-01T00:27:05.071Z,99879.47
2023-01-01T00:27:46.692Z,99846.50
2023-01-01T00:28:28.503Z,99892.63
2023-01-01T00:29:10.226Z,99848.66
2023-01-01T00:29:53.049Z,99917.41
2023-01-01T00:30:34.881Z,99910.97
2023-01-01T00:31:19.898Z,99920.06
2023-01-01T00:32:01.699Z,99902.78
2023-01-01T00:32:43.457Z,99922.22
2023-01-01T00:33:37.069Z,99905.56
2023-01-01T00:34:18.726Z,99929.47
2023-01-01T00:35:00.358Z,99927.00
2023-01-01T00:35:42.011Z,99914.63
2023-01-01T00:36:26.540Z,99901.31
2023-01-01T00:37:08.397Z,99897.66
2023-01-01T00:37:50.027Z,99914.50
2023-01-01T00:38:33.413Z,99900.00
2023-01-01T00:39:15.125Z,99931.03
2023-01-01T00:39:56.709Z,99904.97
2023-01-01T00:40:38.317Z,99904.97
2023-01-01T00:41:22.018Z,99932.13
2023-01-01T00:42:03.701Z,99928.50
2023-01-01T00:42:45.262Z,99937.25
2023-01-01T00:43:30.125Z,99917.44
2023-01-01T00:44:11.758Z,99906.22
2023-01-01T00:44:53.399Z,99928.00
2023-01-01T00:45:35.168Z,99906.03
2023-01-01T00:46:17.114Z,99919.50
2023-01-01T00:46:58.742Z,99922.97
2023-01-01T00:47:40.446Z,99874.88
2023-01-01T00:48:22.421Z,99936.53
2023-01-01T00:49:03.997Z,99930.25
2023-01-01T00:49:45.695Z,99927.59
2023-01-01T00:50:27.402Z,99903.84
2023-01-01T00:51:09.228Z,99900.56
2023-01-01T00:51:50.835Z,99929.25
2023-01-01T00:52:32.475Z,99922.31
2023-01-01T00:53:14.313Z,99926.78
2023-01-01T00:53:56.016Z,99921.00
2023-01-01T00:54:37.630Z,99927.28
2023-01-01T00:55:19.222Z,99921.69
2023-01-01T00:56:01.017Z,99889.38
2023-01-01T00:56:45.074Z,99927.00
2023-01-01T00:57:26.681Z,99918.41
2023-01-01T00:58:09.185Z,99920.22
2023-01-01T00:59:00.832Z,99920.22
2023-01-01T00:59:43.663Z,99916.75
2023-01-01T01:00:25.310Z,99920.06
2023-01-01T01:01:07.129Z,99905.22
2023-01-01T01:01:49.042Z,99918.09
2023-01-01T01:02:30.881Z,99910.31
2023-01-01T01:03:28.063Z,99921.88
2023-01-01T01:04:09.848Z,99905.91
2023-01-01T01:04:51.451Z,99914.78
2023-01-01T01:05:33.717Z,99942.06
2023-01-01T01:06:17.051Z,99919.78
2023-01-01T01:06:58.965Z,99922.59
2023-01-01T01:07:40.870Z,99920.78
2023-01-01T01:08:28.553Z,99906.47
2023-01-01T01:09:12.275Z,99924.59
2023-01-01T01:09:53.870Z,99922.13
2023-01-01T01:10:35.472Z,99892.47
2023-01-01T01:11:22.721Z,99868.38
2023-01-01T01:12:18.785Z,99910.88
2023-01-01T01:13:00.983Z,99903.31
2023-01-01T01:13:44.262Z,99907.63
2023-01-01T01:14:25.977Z,99912.44
2023-01-01T01:15:08.755Z,99925.31
2023-01-01T01:15:54.600Z,99921.38
2023-01-01T01:16:37.996Z,99903.41
2023-01-01T01:17:19.658Z,99950.13
2023-01-01T01:18:01.321Z,99926.66
2023-01-01T01:18:43.497Z,99928.84
2023-01-01T01:19:26.458Z,99924.91
2023-01-01T01:20:08.872Z,99914.69
2023-01-01T01:20:52.224Z,99922.75
2023-01-01T01:21:37.583Z,99933.00
2023-01-01T01:22:24.265Z,99931.50
2023-01-01T01:23:09.515Z,99936.13
2023-01-01T01:23:52.219Z,99928.72
2023-01-01T01:24:33.967Z,99865.56
2023-01-01T01:25:15.665Z,99926.75
2023-01-01T01:26:10.500Z,99918.66
2023-01-01T01:26:53.419Z,99927.22
2023-01-01T01:27:35.038Z,99900.19
2023-01-01T01:28:16.710Z,99929.69
2023-01-01T01:28:58.720Z,99926.22
2023-01-01T01:29:40.389Z,99901.16
2023-01-01T01:30:22.032Z,99890.78
2023-01-01T01:31:04.104Z,99929.84
2023-01-01T01:31:45.807Z,99932.34
2023-01-01T01:32:27.546Z,99933.31
2023-01-01T01:33:09.273Z,99931.50
2023-01-01T01:33:51.143Z,99912.03
2023-01-01T01:34:32.838Z,99907.78
2023-01-01T01:35:14.459Z,99876.31
2023-01-01T01:35:56.102Z,99929.38
2023-01-01T01:36:37.742Z,99922.47
2023-01-01T01:37:19.367Z,99928.41
2023-01-01T01:38:00.975Z,99903.19
2023-01-01T01:38:43.367Z,99914.59
2023-01-01T01:39:24.948Z,99942.78
2023-01-01T01:40:07.676Z,99938.66
2023-01-01T01:40:49.500Z,99926.44
2023-01-01T01:41:31.144Z,99933.72
2023-01-01T01:42:17.802Z,99949.72
2023-01-01T01:42:59.416Z,99938.16
2023-01-01T01:43:40.937Z,99934.50
2023-01-01T01:44:44.213Z,99939.47
2023-01-01T01:45:32.840Z,99928.72
2023-01-01T01:46:21.713Z,99962.59
2023-01-01T01:47:03.373Z,99936.66
2023-01-01T01:47:55.636Z,99946.06
2023-01-01T01:48:41.120Z,99937.84
2023-01-01T01:49:32.575Z,99945.78
2023-01-01T01:50:16.968Z,99954.16
2023-01-01T01:50:58.607Z,99972.50
2023-01-01T01:51:40.675Z,99949.72
2023-01-01T01:52:22.495Z,99936.16
2023-01-01T01:53:12.726Z,99955.13
2023-01-01T01:53:59.688Z,99937.13
2023-01-01T01:54:42.183Z,99895.94
2023-01-01T01:55:26.112Z,99882.06
2023-01-01T01:56:12.970Z,99950.00
2023-01-01T01:57:02.456Z,99948.34
2023-01-01T01:57:44.191Z,99950.50
2023-01-01T01:58:27.819Z,99947.38
2023-01-01T01:59:09.526Z,99955.81
2023-01-01T01:59:55.177Z,99949.06
2023-01-01T02:00:37.232Z,99950.03
2023-01-01T02:01:18.923Z,99944.75
2023-01-01T02:02:01.584Z,99920.00
2023-01-01T02:03:12.463Z,99947.69
2023-01-01T02:04:00.837Z,99954.00
2023-01-01T02:04:42.926Z,99962.25
2023-01-01T02:05:25.141Z,99881.78
2023-01-01T02:06:06.896Z,99952.88
2023-01-01T02:06:50.092Z,99965.25
2023-01-01T02:07:33.968Z,99960.97
2023-01-01T02:08:16.612Z,99901.09
2023-01-01T02:09:02.217Z,99959.81
2023-01-01T02:09:43.871Z,99958.00
2023-01-01T02:10:27.273Z,99955.03
2023-01-01T02:11:08.986Z,99936.25
2023-01-01T02:11:53.614Z,99957.19
2023-01-01T02:12:35.282Z,99956.69
2023-01-01T02:13:20.113Z,99936.22
2023-01-01T02:14:02.624Z,99955.06
2023-01-01T02:14:44.361Z,99929.31
2023-01-01T02:15:31.294Z,99957.34
2023-01-01T02:16:19.685Z,99963.47
2023-01-01T02:17:21.197Z,99954.38
2023-01-01T02:18:16.019Z,99968.22
2023-01-01T02:19:28.355Z,99965.28
2023-01-01T02:20:31.824Z,99953.84
2023-01-01T02:21:19.884Z,99940.81
2023-01-01T02:22:23.499Z,99951.06
2023-01-01T02:23:23.587Z,99960.00
2023-01-01T02:24:26.813Z,99953.88
2023-01-01T02:25:17.445Z,99942.97
2023-01-01T02:26:18.330Z,99942.13
2023-01-01T02:27:44.164Z,99952.41
2023-01-01T02:28:52.489Z,99942.97
2023-01-01T02:29:55.212Z,99945.31
2023-01-01T02:30:39.088Z,99920.38
2023-01-01T02:31:27.064Z,99957.31
2023-01-01T02:32:10.808Z,99948.94
2023-01-01T02:33:00.369Z,99948.25
2023-01-01T02:33:45.071Z,99934.41
2023-01-01T02:34:33.565Z,99947.91
2023-01-01T02:35:35.486Z,99945.94
2023-01-01T02:36:19.771Z,99943.44
2023-01-01T02:37:04.256Z,99964.75
2023-01-01T02:37:48.917Z,99891.59
2023-01-01T02:38:35.118Z,99952.03
2023-01-01T02:39:21.332Z,99961.28
2023-01-01T02:40:03.803Z,99958.59
2023-01-01T02:40:50.463Z,99969.19
2023-01-01T02:41:38.772Z,99969.34
2023-01-01T02:42:24.479Z,99966.34
2023-01-01T02:43:06.887Z,99942.91
2023-01-01T02:43:48.590Z,99954.00
2023-01-01T02:44:34.573Z,99954.66
2023-01-01T02:45:16.361Z,99955.66
2023-01-01T02:45:58.135Z,99962.22
2023-01-01T02:46:39.894Z,99931.84
2023-01-01T02:47:21.575Z,99963.56
2023-01-01T02:48:27.604Z,99973.75
2023-01-01T02:49:10.992Z,99957.41
2023-01-01T02:50:03.836Z,99942.03
2023-01-01T02:50:46.351Z,99966.81
2023-01-01T02:51:55.082Z,99969.97
2023-01-01T02:53:06.295Z,99956.44
2023-01-01T02:54:08.930Z,99905.41
2023-01-01T02:55:01.895Z,99959.91
2023-01-01T02:56:04.751Z,99979.56
2023-01-01T02:56:55.732Z,99946.84
2023-01-01T02:57:46.262Z,99957.09
2023-01-01T02:58:58.045Z,99964.53
2023-01-01T03:00:19.267Z,99959.63
2023-01-01T03:01:13.809Z,99922.63
2023-01-01T03:02:17.294Z,99966.34
2023-01-01T03:03:27.633Z,99967.53
2023-01-01T03:04:25.254Z,99840.72
2023-01-01T03:05:35.840Z,99966.69
2023-01-01T03:06:27.843Z,99973.28
2023-01-01T03:07:29.171Z,99972.47
2023-01-01T03:08:15.831Z,99971.13
2023-01-01T03:09:11.326Z,99975.25
2023-01-01T03:10:04.939Z,99978.66
2023-01-01T03:11:11.903Z,99967.78
2023-01-01T03:12:14.797Z,99975.34
2023-01-01T03:13:10.445Z,99980.09
2023-01-01T03:13:58.936Z,99971.19
2023-01-01T03:14:46.429Z,99945.59
2023-01-01T03:15:38.110Z,99950.25
2023-01-01T03:16:35.171Z,99952.72
2023-01-01T03:17:38.637Z,99969.69
2023-01-01T03:18:36.752Z,99970.03
2023-01-01T03:19:26.916Z,99955.13
2023-01-01T03:20:14.951Z,99951.00
2023-01-01T03:21:01.358Z,99958.44
2023-01-01T03:21:58.508Z,99981.66
2023-01-01T03:23:27.684Z,99976.06
2023-01-01T03:24:16.229Z,99963.00
2023-01-01T03:25:07.126Z,99969.44
2023-01-01T03:25:54.692Z,99984.78
2023-01-01T03:26:37.837Z,99974.25
2023-01-01T03:27:31.320Z,99984.78
2023-01-01T03:28:24.098Z,99959.69
2023-01-01T03:29:06.103Z,99948.94
2023-01-01T03:29:51.384Z,99972.59
2023-01-01T03:30:37.288Z,99951.78
2023-01-01T03:31:23.481Z,99949.00
2023-01-01T03:32:07.543Z,99949.69
2023-01-01T03:33:03.695Z,99966.53
2023-01-01T03:33:49.241Z,99964.56
2023-01-01T03:34:37.447Z,99961.75
2023-01-01T03:35:23.400Z,99973.28
2023-01-01T03:36:11.223Z,99974.94
2023-01-01T03:36:57.827Z,99965.66
2023-01-01T03:37:41.383Z,99970.94
2023-01-01T03:38:29.642Z,99969.94
2023-01-01T03:39:25.385Z,99901.06
2023-01-01T03:40:08.915Z,99914.72
2023-01-01T03:40:57.967Z,99965.28
2023-01-01T03:41:47.254Z,99995.13
2023-01-01T03:42:36.719Z,99970.75
2023-01-01T03:43:35.159Z,99986.75
2023-01-01T03:44:39.851Z,99985.09
2023-01-01T03:45:36.351Z,99978.19
2023-01-01T03:46:22.961Z,99973.84
2023-01-01T03:47:06.734Z,99986.56
2023-01-01T03:47:48.614Z,99978.81
2023-01-01T03:48:50.367Z,99778.66
2023-01-01T03:49:32.991Z,99974.47
2023-01-01T03:50:15.531Z,99971.19
2023-01-01T03:51:15.409Z,99967.91
2023-01-01T03:52:06.119Z,99972.88
2023-01-01T03:53:29.134Z,99967.31
2023-01-01T03:54:38.085Z,99974.22
2023-01-01T03:55:23.912Z,99981.31
2023-01-01T03:56:19.593Z,99978.81
2023-01-01T03:57:11.446Z,99905.13
2023-01-01T03:58:24.627Z,99979.66
2023-01-01T03:59:14.829Z,99958.34
2023-01-01T04:00:04.734Z,99963.78
2023-01-01T04:01:04.514Z,99972.56
2023-01-01T04:01:53.760Z,99982.31
2023-01-01T04:02:42.733Z,99981.19
2023-01-01T04:03:28.275Z,99973.41
2023-01-01T04:04:11.449Z,99973.22
2023-01-01T04:04:53.453Z,99984.28
2023-01-01T04:05:40.487Z,99988.56
2023-01-01T04:06:22.492Z,99929.25
2023-01-01T04:07:14.733Z,99974.84
2023-01-01T04:08:00.525Z,99989.53
2023-01-01T04:08:42.337Z,99979.28
2023-01-01T04:09:30.445Z,99981.25
2023-01-01T04:10:17.820Z,99978.91
2023-01-01T04:11:23.952Z,100002.13
2023-01-01T04:12:06.004Z,99981.00
2023-01-01T04:12:50.483Z,99983.47
2023-01-01T04:13:46.174Z,99921.97
2023-01-01T04:14:35.575Z,99984.59
2023-01-01T04:15:19.292Z,100009.97
2023-01-01T04:16:01.114Z,99975.00
2023-01-01T04:16:42.784Z,99967.38
2023-01-01T04:17:24.506Z,99988.25
2023-01-01T04:18:06.246Z,99963.66
2023-01-01T04:18:47.865Z,99989.88
2023-01-01T04:19:29.560Z,99951.03
2023-01-01T04:20:12.251Z,99900.50
2023-01-01T04:20:54.014Z,99922.84
2023-01-01T04:21:35.588Z,99784.38
2023-01-01T04:22:18.016Z,99915.75
2023-01-01T04:23:00.561Z,99963.78
2023-01-01T04:23:44.721Z,99950.06
2023-01-01T04:24:26.539Z,99954.56
2023-01-01T04:25:09.279Z,99953.59
2023-01-01T04:25:50.856Z,99959.84
2023-01-01T04:26:32.460Z,99968.09
2023-01-01T04:27:14.069Z,99955.47
2023-01-01T04:27:56.042Z,99981.75
2023-01-01T04:28:37.850Z,99925.75
2023-01-01T04:29:19.803Z,99925.75
2023-01-01T04:30:01.488Z,99960.75
2023-01-01T04:31:23.583Z,99965.41
2023-01-01T04:32:05.132Z,99981.88
2023-01-01T04:32:46.830Z,99968.03
2023-01-01T04:33:28.413Z,99972.69
2023-01-01T04:34:10.050Z,99970.88
2023-01-01T04:34:51.675Z,99969.56
2023-01-01T04:35:33.288Z,99970.72
2023-01-01T04:36:14.877Z,99945.28
2023-01-01T04:36:56.532Z,99967.41
2023-01-01T04:37:39.055Z,99962.94
2023-01-01T04:38:22.098Z,99959.75
2023-01-01T04:39:04.340Z,99973.50
2023-01-01T04:39:46.061Z,99977.19
2023-01-01T04:40:27.622Z,99969.75
2023-01-01T04:41:09.458Z,99960.03
2023-01-01T04:41:51.054Z,99951.94
2023-01-01T04:42:33.051Z,99978.06
2023-01-01T04:43:14.654Z,99983.16
2023-01-01T04:43:56.251Z,99980.41
2023-01-01T04:44:38.726Z,99977.44
2023-01-01T04:45:20.305Z,99917.16
2023-01-01T04:46:03.582Z,99958.66
2023-01-01T04:46:45.300Z,99966.41
2023-01-01T04:47:27.180Z,99975.84
2023-01-01T04:48:08.787Z,99976.88
2023-01-01T04:48:50.660Z,99977.84
2023-01-01T04:49:32.287Z,99965.41
2023-01-01T04:50:13.868Z,99961.78
2023-01-01T04:51:00.389Z,99908.72
2023-01-01T04:51:42.032Z,99967.50
2023-01-01T04:52:23.671Z,99985.06
2023-01-01T04:53:05.272Z,99970.19
2023-01-01T04:53:47.006Z,99940.44
2023-01-01T04:54:28.586Z,99901.47
2023-01-01T04:55:10.232Z,99989.69
2023-01-01T04:55:51.911Z,99968.38
2023-01-01T04:56:33.549Z,99988.06
2023-01-01T04:57:15.323Z,99988.41
2023-01-01T04:57:59.506Z,100001.97
2023-01-01T04:58:42.644Z,100000.31
2023-01-01T04:59:24.340Z,99986.94
2023-01-01T05:00:06.593Z,99982.84
2023-01-01T05:00:50.414Z,99985.13
2023-01-01T05:01:32.296Z,100004.06
2023-01-01T05:02:14.206Z,99976.03
2023-01-01T05:02:55.862Z,99989.03
2023-01-01T05:03:37.551Z,99987.88
2023-01-01T05:04:19.121Z,99978.16
2023-01-01T05:05:00.854Z,99976.13
2023-01-01T05:05:45.521Z,99992.97
2023-01-01T05:06:30.054Z,99970.31
2023-01-01T05:07:11.628Z,99979.75
2023-01-01T05:07:53.200Z,100002.69
2023-01-01T05:08:37.601Z,99986.56
2023-01-01T05:09:19.360Z,99934.00
2023-01-01T05:10:00.960Z,99965.72
2023-01-01T05:10:42.529Z,99973.34
2023-01-01T05:11:27.318Z,99960.28
2023-01-01T05:12:08.936Z,99990.13
2023-01-01T05:12:50.588Z,99988.69
2023-01-01T05:13:34.575Z,99986.38
2023-01-01T05:14:16.215Z,100001.72
2023-01-01T05:14:57.817Z,99995.63
2023-01-01T05:15:39.468Z,99984.03
2023-01-01T05:16:23.837Z,99994.94
2023-01-01T05:17:05.511Z,100003.84
2023-01-01T05:17:47.141Z,99957.53
2023-01-01T05:18:28.799Z,100007.75
2023-01-01T05:19:11.673Z,99962.66
2023-01-01T05:19:53.278Z,100000.81
2023-01-01T05:20:35.127Z,99875.91
2023-01-01T05:21:19.525Z,100006.09
2023-01-01T05:22:06.893Z,100002.31
2023-01-01T05:22:51.949Z,99999.38
2023-01-01T05:23:33.986Z,99989.81
2023-01-01T05:24:15.831Z,99960.59
2023-01-01T05:24:57.504Z,99994.31
2023-01-01T05:25:39.936Z,100002.22
2023-01-01T05:26:24.482Z,100014.56
2023-01-01T05:27:06.112Z,100006.34
2023-01-01T05:27:47.743Z,99993.28
2023-01-01T05:28:29.442Z,100005.22
2023-01-01T05:29:16.646Z,100012.44
2023-01-01T05:29:58.831Z,100014.94
2023-01-01T05:30:40.826Z,100007.19
2023-01-01T05:31:25.344Z,100007.03
2023-01-01T05:32:47.873Z,100012.81
2023-01-01T05:33:29.479Z,99965.56
2023-01-01T05:34:11.384Z,100002.44
2023-01-01T05:34:53.389Z,100019.38
2023-01-01T05:35:35.034Z,99996.59
2023-01-01T05:36:33.921Z,100013.59
2023-01-01T05:37:15.549Z,100021.00
2023-01-01T05:37:57.144Z,100007.75
2023-01-01T05:38:38.773Z,99962.47
2023-01-01T05:39:20.397Z,99999.50
2023-01-01T05:40:02.012Z,100023.94
2023-01-01T05:40:43.580Z,100007.41
2023-01-01T05:41:25.725Z,100013.53
2023-01-01T05:42:07.296Z,100003.78
2023-01-01T05:42:49.134Z,100008.56
2023-01-01T05:43:30.761Z,100008.72
2023-01-01T05:44:12.453Z,99996.16
2023-01-01T05:44:54.030Z,100010.72
2023-01-01T05:45:35.700Z,100009.63
2023-01-01T05:46:20.559Z,100007.56
2023-01-01T05:47:02.257Z,100012.97
2023-01-01T05:47:43.889Z,100008.03
2023-01-01T05:48:25.513Z,100011.69
2023-01-01T05:49:11.467Z,99953.84
2023-01-01T05:49:53.086Z,100018.41
2023-01-01T05:50:34.735Z,100013.19
2023-01-01T05:51:20.124Z,100026.19
2023-01-01T05:52:01.915Z,100014.78
2023-01-01T05:52:43.552Z,99961.56
2023-01-01T05:53:25.155Z,100004.06
2023-01-01T05:54:06.788Z,100012.00
2023-01-01T05:54:48.448Z,100031.47
2023-01-01T05:55:31.073Z,100029.16
2023-01-01T05:56:14.039Z,100036.75
2023-01-01T05:56:58.171Z,100044.81
2023-01-01T05:57:39.788Z,100035.03
2023-01-01T05:58:21.429Z,100004.00
2023-01-01T05:59:03.160Z,100041.16
2023-01-01T05:59:44.769Z,100035.03
2023-01-01T06:00:28.128Z,100042.94
2023-01-01T06:01:16.356Z,100038.66
2023-01-01T06:01:58.115Z,100018.13
2023-01-01T06:02:39.897Z,100040.47
2023-01-01T06:03:22.272Z,100037.69
2023-01-01T06:04:05.049Z,100044.59
2023-01-01T06:04:46.857Z,100026.47
2023-01-01T06:05:28.481Z,100024.19
2023-01-01T06:06:12.991Z,100015.19
2023-01-01T06:06:54.617Z,100029.47
2023-01-01T06:07:36.471Z,100037.38
2023-01-01T06:08:18.143Z,100016.06
2023-01-01T06:09:04.002Z,100004.00
2023-01-01T06:09:45.609Z,100040.00
2023-01-01T06:10:27.229Z,100023.53
2023-01-01T06:11:12.141Z,100024.88
2023-01-01T06:11:53.835Z,100026.16
2023-01-01T06:12:35.433Z,100031.13
2023-01-01T06:13:17.021Z,100023.38
2023-01-01T06:14:00.405Z,100032.63
2023-01-01T06:14:41.992Z,99963.03
2023-01-01T06:15:23.539Z,100024.06
2023-01-01T06:16:05.728Z,100027.81
2023-01-01T06:16:47.375Z,100026.16
2023-01-01T06:17:29.024Z,100012.19
2023-01-01T06:18:10.684Z,100007.59
2023-01-01T06:18:52.457Z,100024.50
2023-01-01T06:19:34.101Z,99971.88
2023-01-01T06:20:15.872Z,99998.69
2023-01-01T06:21:17.165Z,100028.28
2023-01-01T06:21:58.802Z,100019.66
2023-01-01T06:22:40.408Z,99991.03
2023-01-01T06:23:22.100Z,100008.53
2023-01-01T06:24:04.026Z,100030.56
2023-01-01T06:24:45.683Z,100032.53
2023-01-01T06:25:27.293Z,100033.28
2023-01-01T06:26:11.414Z,100035.75
2023-01-01T06:26:53.062Z,100019.38
2023-01-01T06:27:36.260Z,100023.66
2023-01-01T06:28:17.857Z,100040.56
2023-01-01T06:29:03.470Z,100008.69
2023-01-01T06:29:45.048Z,100027.69
2023-01-01T06:30:27.050Z,100034.31
2023-01-01T06:31:11.315Z,100027.41
2023-01-01T06:31:53.025Z,99974.66
2023-01-01T06:32:34.631Z,99886.34
2023-01-01T06:33:16.178Z,100035.59
2023-01-01T06:33:58.051Z,100044.72
2023-01-01T06:34:39.639Z,100031.47
2023-01-01T06:35:21.220Z,100005.91
2023-01-01T06:36:05.943Z,100040.28
2023-01-01T06:36:47.509Z,100043.06
2023-01-01T06:37:29.217Z,100002.75
2023-01-01T06:38:10.831Z,99966.75
2023-01-01T06:38:55.575Z,100032.03
2023-01-01T06:39:37.246Z,100035.97
2023-01-01T06:40:18.856Z,100025.13
2023-01-01T06:41:10.562Z,100040.47
2023-01-01T06:41:52.166Z,100034.84
2023-01-01T06:42:34.251Z,100015.66
2023-01-01T06:43:15.895Z,100032.72
2023-01-01T06:43:59.386Z,100038.97
2023-01-01T06:44:41.078Z,100007.84
2023-01-01T06:45:22.685Z,100024.88
2023-01-01T06:46:07.503Z,100048.66
2023-01-01T06:46:49.120Z,100048.19
2023-01-01T06:47:34.519Z,100021.91
2023-01-01T06:48:16.180Z,100043.41
2023-01-01T06:49:04.627Z,100048.53
2023-01-01T06:49:46.218Z,100048.31
2023-01-01T06:50:27.793Z,100037.47
2023-01-01T06:51:12.080Z,100047.53
2023-01-01T06:51:53.791Z,100053.13
2023-01-01T06:52:36.142Z,100042.69
2023-01-01T06:53:17.775Z,99990.38
2023-01-01T06:54:01.183Z,100058.88
2023-01-01T06:54:42.764Z,100053.38
2023-01-01T06:55:24.373Z,99954.22
2023-01-01T06:56:06.857Z,100051.50
2023-01-01T06:56:48.528Z,100049.56
2023-01-01T06:57:30.349Z,100051.06
2023-01-01T06:58:11.924Z,100056.00
2023-01-01T06:58:53.627Z,100039.63
2023-01-01T06:59:35.202Z,100058.44
2023-01-01T07:00:16.854Z,100056.00
2023-01-01T07:01:16.462Z,100073.47
2023-01-01T07:01:58.310Z,100056.81
2023-01-01T07:02:40.309Z,100058.28
2023-01-01T07:03:22.068Z,100062.94
2023-01-01T07:04:08.104Z,100065.72
2023-01-01T07:04:50.247Z,100054.66
2023-01-01T07:05:31.914Z,100060.38
2023-01-01T07:06:13.538Z,100071.81
2023-01-01T07:06:55.136Z,100055.81
2023-01-01T07:07:36.925Z,100071.50
2023-01-01T07:08:18.489Z,100079.56
2023-01-01T07:09:00.976Z,100080.91
2023-01-01T07:09:42.818Z,100065.88
2023-01-01T07:10:24.437Z,100055.13
2023-01-01T07:11:06.419Z,100075.41
2023-01-01T07:11:48.028Z,100077.59
2023-01-01T07:12:29.661Z,100065.63
2023-01-01T07:13:11.280Z,100085.75
2023-01-01T07:13:54.442Z,100092.97
2023-01-01T07:14:36.185Z,100081.16
2023-01-01T07:15:17.827Z,100082.50
2023-01-01T07:15:59.883Z,100087.94
2023-01-01T07:16:41.608Z,100072.53
2023-01-01T07:17:23.200Z,100069.06
2023-01-01T07:18:04.914Z,100094.19
2023-01-01T07:18:48.981Z,100093.34
2023-01-01T07:19:30.669Z,100090.03
2023-01-01T07:20:12.284Z,100028.00
2023-01-01T07:20:55.436Z,100073.25
2023-01-01T07:21:53.420Z,100067.63
2023-01-01T07:22:38.088Z,100095.91
2023-01-01T07:23:22.567Z,100058.16
2023-01-01T07:24:05.742Z,100085.53
2023-01-01T07:24:48.323Z,100062.91
2023-01-01T07:25:30.098Z,100098.63
2023-01-01T07:26:11.723Z,100083.78
2023-01-01T07:26:53.336Z,100115.03
2023-01-01T07:27:34.953Z,100103.38
2023-01-01T07:28:16.612Z,100109.31
2023-01-01T07:29:06.300Z,100104.72
2023-01-01T07:29:48.838Z,100105.03
2023-01-01T07:30:31.148Z,100105.56
2023-01-01T07:31:12.926Z,100037.00
2023-01-01T07:31:54.620Z,100092.09
2023-01-01T07:32:36.281Z,100115.41
2023-01-01T07:33:21.011Z,100113.91
2023-01-01T07:34:02.723Z,100094.19
2023-01-01T07:34:48.938Z,100090.72
2023-01-01T07:35:32.357Z,100122.09
2023-01-01T07:36:14.158Z,100112.47
2023-01-01T07:36:56.550Z,100143.84
2023-01-01T07:37:38.253Z,100117.38
2023-01-01T07:38:19.915Z,100131.22
2023-01-01T07:39:01.577Z,100118.78
2023-01-01T07:39:43.170Z,100119.03
2023-01-01T07:40:24.778Z,100067.03
2023-01-01T07:41:06.504Z,100132.03
2023-01-01T07:41:48.103Z,100139.66
2023-01-01T07:42:29.797Z,100136.19
2023-01-01T07:43:14.147Z,100090.28
2023-01-01T07:43:55.898Z,100127.16
2023-01-01T07:44:37.542Z,100137.31
2023-01-01T07:45:19.169Z,100115.78
2023-01-01T07:46:01.002Z,100124.22
2023-01-01T07:46:42.752Z,100105.00
2023-01-01T07:47:25.996Z,100057.38
2023-01-01T07:48:13.554Z,100150.41
2023-01-01T07:48:57.059Z,100132.19
2023-01-01T07:49:38.683Z,100127.91
2023-01-01T07:50:21.091Z,100134.75
2023-01-01T07:51:02.759Z,100142.19
2023-01-01T07:51:44.553Z,100143.72
2023-01-01T07:52:26.140Z,100092.09
2023-01-01T07:53:09.375Z,100139.19
2023-01-01T07:53:53.812Z,100147.47
2023-01-01T07:54:35.393Z,100146.66
2023-01-01T07:55:21.023Z,100151.22
2023-01-01T07:56:02.703Z,100136.78
2023-01-01T07:56:44.331Z,100113.75
2023-01-01T07:57:25.933Z,100128.47
2023-01-01T07:58:07.720Z,100150.47
2023-01-01T07:58:49.373Z,100160.34
2023-01-01T07:59:31.182Z,100173.22
2023-01-01T08:00:15.951Z,100172.53
2023-01-01T08:00:58.313Z,100133.38
2023-01-01T08:01:40.114Z,100186.38
2023-01-01T08:02:21.960Z,100159.38
2023-01-01T08:03:04.192Z,100173.44
2023-01-01T08:03:51.137Z,100177.44
2023-01-01T08:04:32.788Z,100176.91
2023-01-01T08:05:14.484Z,100174.56
2023-01-01T08:05:56.115Z,100181.88
2023-01-01T08:06:37.780Z,100184.34
2023-01-01T08:07:19.374Z,100185.19
2023-01-01T08:08:00.985Z,100170.91
2023-01-01T08:08:42.629Z,100189.00
2023-01-01T08:09:24.296Z,100186.09
2023-01-01T08:10:07.176Z,100200.09
2023-01-01T08:10:48.819Z,100186.09
2023-01-01T08:11:30.483Z,100187.88
2023-01-01T08:12:12.136Z,100116.38
2023-01-01T08:13:00.128Z,100189.00
2023-01-01T08:13:41.773Z,100189.53
2023-01-01T08:14:23.504Z,100194.19
2023-01-01T08:15:05.676Z,100146.56
2023-01-01T08:15:47.390Z,100167.34
2023-01-01T08:16:29.091Z,100186.81
2023-01-01T08:17:10.766Z,100177.56
2023-01-01T08:17:59.301Z,100159.72
2023-01-01T08:18:40.983Z,100185.69
2023-01-01T08:19:23.442Z,100146.16
2023-01-01T08:20:05.836Z,100180.78
2023-01-01T08:20:47.506Z,100177.00
2023-01-01T08:21:29.645Z,100180.81
2023-01-01T08:22:11.244Z,100194.53
2023-01-01T08:22:53.555Z,100174.56
2023-01-01T08:23:35.289Z,100182.69
2023-01-01T08:24:16.861Z,100178.25
2023-01-01T08:24:58.434Z,100182.56
2023-01-01T08:25:40.060Z,100187.59
2023-01-01T08:26:33.578Z,100190.56
2023-01-01T08:27:16.553Z,100197.66
2023-01-01T08:27:58.186Z,100193.22
2023-01-01T08:28:39.801Z,100188.56
2023-01-01T08:29:21.698Z,100187.44
2023-01-01T08:30:04.031Z,100184.06
2023-01-01T08:30:45.696Z,100162.59
2023-01-01T08:31:27.398Z,100191.72
2023-01-01T08:32:09.177Z,100116.81
2023-01-01T08:32:50.912Z,100191.91
2023-01-01T08:33:32.484Z,100191.59
2023-01-01T08:34:14.069Z,100190.13
2023-01-01T08:34:55.734Z,100191.19
2023-01-01T08:35:41.663Z,100179.97
2023-01-01T08:36:23.414Z,100185.47
2023-01-01T08:37:05.104Z,100179.00
2023-01-01T08:37:46.896Z,100184.53
2023-01-01T08:38:28.460Z,100155.09
2023-01-01T08:39:10.161Z,100190.31
2023-01-01T08:39:52.658Z,100171.44
2023-01-01T08:40:34.348Z,100183.53
2023-01-01T08:41:16.019Z,100200.38
2023-01-01T08:41:57.690Z,100173.28
2023-01-01T08:42:39.793Z,100189.38